createdAt,value
2018-06-29T00:01:06.945Z,98115.84
2018-06-29T00:03:39.330Z,98122.52
2018-06-29T00:06:12.626Z,98118.00
2018-06-29T00:08:46.153Z,98116.86
2018-06-29T00:11:19.154Z,98114.51
2018-06-29T00:13:51.469Z,98116.22
2018-06-29T00:16:25.518Z,98115.91
2018-06-29T00:18:58.428Z,98116.95
2018-06-29T00:21:31.663Z,98119.63
2018-06-29T00:24:04.543Z,98123.63
2018-06-29T00:26:37.037Z,98122.58
2018-06-29T00:29:09.839Z,98121.84
2018-06-29T00:31:42.964Z,98132.66
2018-06-29T00:34:15.820Z,98138.05
2018-06-29T00:36:48.842Z,98136.21
2018-06-29T00:39:21.649Z,98149.37
2018-06-29T00:41:54.106Z,98141.36
2018-06-29T00:44:27.249Z,98154.08
2018-06-29T00:47:00.120Z,98155.09
2018-06-29T00:49:33.000Z,98151.09
2018-06-29T00:52:06.151Z,98156.23
2018-06-29T00:54:39.156Z,98150.16
2018-06-29T00:57:11.781Z,98156.14
2018-06-29T00:59:44.956Z,98160.33
2018-06-29T01:02:20.913Z,98163.61
2018-06-29T01:04:53.715Z,98164.44
2018-06-29T01:07:26.084Z,98165.98
2018-06-29T01:09:59.431Z,98167.16
2018-06-29T01:12:32.474Z,98175.17
2018-06-29T01:15:05.649Z,98165.19
2018-06-29T01:17:38.918Z,98172.18
2018-06-29T01:20:11.356Z,98172.88
2018-06-29T01:22:43.629Z,98175.36
2018-06-29T01:25:16.796Z,98174.34
2018-06-29T01:27:49.557Z,98177.20
2018-06-29T01:30:22.245Z,98175.55
2018-06-29T01:32:54.748Z,98183.55
2018-06-29T01:35:27.623Z,98185.16
2018-06-29T01:38:00.943Z,98180.60
2018-06-29T01:40:33.702Z,98183.86
2018-06-29T01:43:06.140Z,98187.91
2018-06-29T01:45:39.393Z,98190.27
2018-06-29T01:48:11.548Z,98188.88
2018-06-29T01:50:44.668Z,98185.57
2018-06-29T01:53:17.592Z,98192.24
2018-06-29T01:55:50.553Z,98181.97
2018-06-29T01:58:23.367Z,98187.09
2018-06-29T02:00:56.518Z,98185.59
2018-06-29T02:03:28.861Z,98189.47
2018-06-29T02:06:02.213Z,98191.12
2018-06-29T02:08:35.581Z,98186.39
2018-06-29T02:11:09.045Z,98179.89
2018-06-29T02:13:41.791Z,98184.12
2018-06-29T02:16:14.600Z,98178.41
2018-06-29T02:18:49.035Z,98173.22
2018-06-29T02:21:22.086Z,98176.39
2018-06-29T02:23:54.660Z,98178.33
2018-06-29T02:26:27.837Z,98181.27
2018-06-29T02:29:00.517Z,98183.16
2018-06-29T02:31:32.899Z,98185.78
2018-06-29T02:34:05.887Z,98187.89
2018-06-29T02:36:38.378Z,98186.84
2018-06-29T02:39:14.639Z,98190.23
2018-06-29T02:41:46.609Z,98187.56
2018-06-29T02:44:18.638Z,98190.23
2018-06-29T02:46:51.106Z,98188.26
2018-06-29T02:49:23.832Z,98191.94
2018-06-29T02:51:57.043Z,98183.94
2018-06-29T02:54:30.252Z,98183.43
2018-06-29T02:57:03.562Z,98173.58
2018-06-29T02:59:36.888Z,98175.16
2018-06-29T03:02:09.583Z,98180.17
2018-06-29T03:04:41.963Z,98179.80
2018-06-29T03:07:15.018Z,98182.84
2018-06-29T03:09:47.541Z,98188.26
2018-06-29T03:12:19.920Z,98186.69
2018-06-29T03:14:52.693Z,98182.78
2018-06-29T03:17:26.357Z,98187.61
2018-06-29T03:19:59.698Z,98193.27
2018-06-29T03:22:32.347Z,98196.18
2018-06-29T03:25:05.171Z,98197.05
2018-06-29T03:27:38.453Z,98202.78
2018-06-29T03:30:11.270Z,98200.25
2018-06-29T03:32:44.262Z,98207.20
2018-06-29T03:35:17.229Z,98210.13
2018-06-29T03:37:50.566Z,98210.83
2018-06-29T03:40:23.761Z,98210.53
2018-06-29T03:42:56.340Z,98214.21
2018-06-29T03:45:28.712Z,98214.45
2018-06-29T03:48:01.900Z,98211.42
2018-06-29T03:50:33.853Z,98205.67
2018-06-29T03:53:07.294Z,98202.29
2018-06-29T03:55:39.993Z,98206.94
2018-06-29T03:58:12.426Z,98207.25
2018-06-29T04:00:47.627Z,98209.92
2018-06-29T04:03:20.320Z,98216.91
2018-06-29T04:05:53.125Z,98211.18
2018-06-29T04:08:26.237Z,98208.51
2018-06-29T04:10:58.340Z,98211.69
2018-06-29T04:13:31.394Z,98212.47
2018-06-29T04:16:03.867Z,98212.14
2018-06-29T04:18:36.469Z,98222.50
2018-06-29T04:21:09.844Z,98210.41
2018-06-29T04:23:43.110Z,98210.63
2018-06-29T04:26:15.852Z,98217.03
2018-06-29T04:28:49.054Z,98213.40
2018-06-29T04:31:21.967Z,98208.11
2018-06-29T04:47:49.858Z,98208.28
2018-06-29T04:50:22.348Z,98206.48
2018-06-29T04:52:55.208Z,98197.06
2018-06-29T04:55:27.535Z,98187.36
2018-06-29T04:58:05.169Z,98201.45
2018-06-29T05:00:38.228Z,98188.32
2018-06-29T05:03:11.397Z,98185.06
2018-06-29T05:05:44.454Z,98188.23
2018-06-29T05:08:17.151Z,98185.52
2018-06-29T05:10:49.827Z,98188.48
2018-06-29T05:13:22.984Z,98189.20
2018-06-29T05:15:56.710Z,98187.03
2018-06-29T05:18:29.636Z,98184.47
2018-06-29T05:21:02.163Z,98184.05
2018-06-29T05:23:36.975Z,98189.76
2018-06-29T05:26:09.960Z,98177.80
2018-06-29T05:28:42.270Z,98172.17
2018-06-29T05:31:14.926Z,98175.91
2018-06-29T05:33:47.418Z,98173.05
2018-06-29T05:36:20.349Z,98167.49
2018-06-29T05:38:52.761Z,98164.72
2018-06-29T05:41:25.086Z,98163.81
2018-06-29T05:43:57.452Z,98164.95
2018-06-29T05:46:30.106Z,98168.77
2018-06-29T05:49:03.180Z,98169.92
2018-06-29T05:51:36.100Z,98165.91
2018-06-29T05:54:09.749Z,98162.84
2018-06-29T05:56:44.631Z,98160.48
2018-06-29T05:59:17.528Z,98157.69
2018-06-29T06:01:50.311Z,98158.17
2018-06-29T06:04:22.871Z,98155.59
2018-06-29T06:06:55.149Z,98151.81
2018-06-29T06:09:27.617Z,98150.80
2018-06-29T06:12:01.741Z,98153.06
2018-06-29T06:14:37.380Z,98141.68
2018-06-29T06:17:11.231Z,98149.37
2018-06-29T06:19:52.862Z,98150.02
2018-06-29T06:22:26.066Z,98151.58
2018-06-29T06:24:59.439Z,98147.19
2018-06-29T06:27:32.909Z,98157.88
2018-06-29T06:30:05.594Z,98153.14
2018-06-29T06:32:37.741Z,98156.06
2018-06-29T06:35:12.189Z,98149.95
2018-06-29T06:37:48.817Z,98145.86
2018-06-29T06:40:22.036Z,98136.28
2018-06-29T06:42:54.897Z,98134.37
2018-06-29T06:45:27.713Z,98135.40
2018-06-29T06:48:00.764Z,98140.73
2018-06-29T06:50:33.255Z,98133.66
2018-06-29T06:53:05.858Z,98130.06
2018-06-29T06:55:38.430Z,98127.70
2018-06-29T06:58:11.303Z,98132.03
2018-06-29T07:00:44.439Z,98121.34
2018-06-29T07:03:16.868Z,98116.29
2018-06-29T07:05:49.788Z,98106.75
2018-06-29T07:08:22.281Z,98107.70
2018-06-29T07:10:54.895Z,98110.70
2018-06-29T07:13:27.494Z,98107.80
2018-06-29T07:16:00.026Z,98101.25
2018-06-29T07:18:33.519Z,98099.41
2018-06-29T07:21:06.657Z,98097.45
2018-06-29T07:23:39.909Z,98100.26
2018-06-29T07:26:12.653Z,98101.59
2018-06-29T07:28:45.756Z,98094.28
2018-06-29T07:31:18.231Z,98096.95
2018-06-29T07:33:50.979Z,98092.94
2018-06-29T07:36:25.230Z,98095.33
2018-06-29T07:38:58.714Z,98083.52
2018-06-29T07:41:32.056Z,98077.55
2018-06-29T07:44:05.216Z,98086.27
2018-06-29T07:46:38.808Z,98070.23
2018-06-29T07:49:12.169Z,98074.56
2018-06-29T07:51:45.325Z,98067.38
2018-06-29T07:54:18.324Z,98062.34
2018-06-29T07:56:51.588Z,98070.88
2018-06-29T07:59:24.565Z,98070.23
2018-06-29T08:01:58.090Z,98075.58
2018-06-29T08:04:31.046Z,98067.47
2018-06-29T08:07:04.287Z,98079.71
2018-06-29T08:09:38.642Z,98064.89
2018-06-29T08:12:12.162Z,98060.60
2018-06-29T08:14:45.456Z,98060.19
2018-06-29T08:17:18.871Z,98051.16
2018-06-29T08:19:53.044Z,98050.64
2018-06-29T08:22:26.660Z,98045.11
2018-06-29T08:25:11.113Z,98048.09
2018-06-29T08:27:44.951Z,98047.36
2018-06-29T08:30:17.213Z,98047.67
2018-06-29T08:32:50.566Z,98056.67
2018-06-29T08:35:23.825Z,98043.78
2018-06-29T08:37:57.691Z,98053.65
2018-06-29T08:40:30.948Z,98044.30
2018-06-29T08:43:04.682Z,98039.30
2018-06-29T08:45:38.120Z,98034.27
2018-06-29T08:48:11.636Z,98038.88
2018-06-29T08:50:45.035Z,98024.92
2018-06-29T08:53:18.191Z,98034.27
2018-06-29T08:55:51.279Z,98018.13
2018-06-29T08:58:25.847Z,98018.53
2018-06-29T09:00:58.413Z,98013.73
2018-06-29T09:03:33.704Z,98007.77
2018-06-29T09:06:07.085Z,98007.27
2018-06-29T09:08:40.764Z,98003.77
2018-06-29T09:11:14.270Z,97998.00
2018-06-29T09:13:47.454Z,97990.80
2018-06-29T09:16:20.922Z,97993.59
2018-06-29T09:18:54.504Z,97991.12
2018-06-29T09:21:27.815Z,97980.03
2018-06-29T09:24:01.162Z,97983.53
2018-06-29T09:26:34.407Z,97979.33
2018-06-29T09:29:07.740Z,97961.44
2018-06-29T09:31:40.672Z,97965.97
2018-06-29T09:34:14.112Z,97959.98
2018-06-29T09:36:47.455Z,97959.36
2018-06-29T09:39:21.098Z,97953.62
2018-06-29T09:41:54.677Z,97939.55
2018-06-29T09:44:28.117Z,97943.33
2018-06-29T09:47:01.536Z,97948.47
2018-06-29T09:49:34.598Z,97940.88
2018-06-29T09:52:08.182Z,97941.78
2018-06-29T09:54:41.122Z,97931.30
2018-06-29T09:57:14.080Z,97928.84
2018-06-29T09:59:47.223Z,97929.96
2018-06-29T10:02:21.064Z,97932.23
2018-06-29T10:04:54.281Z,97923.59
2018-06-29T10:07:27.276Z,97915.26
2018-06-29T10:10:03.167Z,97916.28
2018-06-29T10:12:36.480Z,97902.72
2018-06-29T10:15:09.933Z,97901.06
2018-06-29T10:17:43.191Z,97890.09
2018-06-29T10:20:16.750Z,97889.35
2018-06-29T10:22:50.235Z,97882.59
2018-06-29T10:25:25.498Z,97883.41
2018-06-29T10:27:58.664Z,97879.39
2018-06-29T10:30:32.605Z,97883.17
2018-06-29T10:33:05.390Z,97877.13
2018-06-29T10:35:38.904Z,97878.66
2018-06-29T10:38:16.660Z,97880.11
2018-06-29T10:40:50.425Z,97882.78
2018-06-29T10:43:23.598Z,97882.78
2018-06-29T10:46:08.470Z,97886.67
2018-06-29T10:48:41.838Z,97880.73
2018-06-29T10:51:15.089Z,97884.81
2018-06-29T10:53:47.057Z,97884.30
2018-06-29T10:56:20.363Z,97881.95
2018-06-29T10:58:53.464Z,97885.64
2018-06-29T11:01:26.808Z,97888.63
2018-06-29T11:04:01.692Z,97884.62
2018-06-29T11:06:35.128Z,97891.62
2018-06-29T11:09:10.560Z,97893.98
2018-06-29T11:11:43.801Z,97894.17
2018-06-29T11:14:16.808Z,97889.86
2018-06-29T11:16:50.202Z,97889.66
2018-06-29T11:19:22.908Z,97886.67
2018-06-29T11:21:56.370Z,97882.77
2018-06-29T11:24:29.250Z,97893.36
2018-06-29T11:27:02.394Z,97892.02
2018-06-29T11:29:35.231Z,97891.30
2018-06-29T11:32:08.080Z,97893.16
2018-06-29T11:34:41.438Z,97879.27
2018-06-29T11:37:15.237Z,97875.98
2018-06-29T11:39:48.693Z,97877.31
2018-06-29T11:42:22.292Z,97881.33
2018-06-29T11:44:55.178Z,97882.66
2018-06-29T11:47:28.414Z,97878.88
2018-06-29T11:50:01.403Z,97879.47
2018-06-29T11:52:34.864Z,97881.63
2018-06-29T11:55:08.127Z,97887.61
2018-06-29T11:57:40.964Z,97882.26
2018-06-29T12:00:13.646Z,97879.78
2018-06-29T12:02:46.918Z,97882.26
2018-06-29T12:05:21.310Z,97887.30
2018-06-29T12:07:55.127Z,97878.25
2018-06-29T12:10:28.176Z,97879.59
2018-06-29T12:13:01.469Z,97878.56
2018-06-29T12:15:34.444Z,97877.53
2018-06-29T12:18:07.629Z,97877.30
2018-06-29T12:20:39.996Z,97876.20
2018-06-29T12:23:13.364Z,97884.22
2018-06-29T12:25:46.846Z,97890.39
2018-06-29T12:28:20.316Z,97901.16
2018-06-29T12:30:53.540Z,97899.20
2018-06-29T12:33:26.723Z,97901.78
2018-06-29T12:35:59.256Z,97896.75
2018-06-29T12:38:32.147Z,97900.96
2018-06-29T12:41:05.150Z,97923.38
2018-06-29T12:43:38.313Z,97919.91
2018-06-29T12:46:10.531Z,97927.70
2018-06-29T12:48:43.975Z,97923.89
2018-06-29T12:51:16.926Z,97931.91
2018-06-29T12:53:50.039Z,97922.75
2018-06-29T12:56:22.871Z,97925.94
2018-06-29T12:58:56.148Z,97921.42
2018-06-29T13:01:28.987Z,97926.06
2018-06-29T13:04:01.444Z,97937.89
2018-06-29T13:06:35.335Z,97945.48
2018-06-29T13:09:10.677Z,97948.47
2018-06-29T13:11:43.653Z,97949.09
2018-06-29T13:14:17.166Z,97948.78
2018-06-29T13:16:50.131Z,97954.24
2018-06-29T13:19:23.304Z,97963.69
2018-06-29T13:21:56.605Z,97968.44
2018-06-29T13:24:29.749Z,97965.14
2018-06-29T13:27:03.079Z,97974.18
2018-06-29T13:29:36.209Z,97977.17
2018-06-29T13:32:09.306Z,97973.98
2018-06-29T13:34:42.616Z,97979.33
2018-06-29T13:37:15.805Z,97986.09
2018-06-29T13:39:49.355Z,97987.34
2018-06-29T13:42:22.332Z,97986.52
2018-06-29T13:44:55.456Z,97995.38
2018-06-29T13:47:28.570Z,97999.89
2018-06-29T13:50:01.583Z,98002.56
2018-06-29T13:52:34.470Z,98006.46
2018-06-29T13:55:07.098Z,98006.89
2018-06-29T13:57:39.342Z,98009.45
2018-06-29T14:00:12.739Z,98010.98
2018-06-29T14:02:45.827Z,98019.31
2018-06-29T14:05:19.191Z,98016.95
2018-06-29T14:07:52.512Z,98022.30
2018-06-29T14:10:25.723Z,98023.33
2018-06-29T14:12:59.429Z,98019.31
2018-06-29T14:15:33.035Z,98032.28
2018-06-29T14:18:06.032Z,98033.20
2018-06-29T14:20:39.463Z,98044.70
2018-06-29T14:23:12.708Z,98043.88
2018-06-29T14:25:45.883Z,98044.00
2018-06-29T14:28:20.112Z,98043.69
2018-06-29T14:30:53.529Z,98044.39
2018-06-29T14:33:26.270Z,98048.72
2018-06-29T14:35:59.291Z,98051.59
2018-06-29T14:38:32.364Z,98052.84
2018-06-29T14:41:05.802Z,98052.61
2018-06-29T14:43:38.885Z,98053.66
2018-06-29T14:46:11.674Z,98056.62
2018-06-29T14:48:44.676Z,98053.66
2018-06-29T14:51:19.652Z,98053.95
2018-06-29T14:53:52.506Z,98056.34
2018-06-29T14:56:25.467Z,98051.70
2018-06-29T14:58:58.463Z,98041.91
2018-06-29T15:01:31.479Z,98046.75
2018-06-29T15:04:04.743Z,98048.09
2018-06-29T15:06:38.174Z,98057.67
2018-06-29T15:09:12.098Z,98064.64
2018-06-29T15:11:44.495Z,98067.31
2018-06-29T15:14:16.973Z,98077.41
2018-06-29T15:16:50.135Z,98084.59
2018-06-29T15:19:22.727Z,98083.45
2018-06-29T15:21:55.183Z,98091.16
2018-06-29T15:24:27.567Z,98095.17
2018-06-29T15:27:00.045Z,98103.31
2018-06-29T15:29:32.748Z,98107.12
2018-06-29T15:32:05.421Z,98112.47
2018-06-29T15:34:37.876Z,98120.89
2018-06-29T15:37:10.683Z,98123.56
2018-06-29T15:39:43.652Z,98129.73
2018-06-29T15:42:16.980Z,98132.30
2018-06-29T15:44:49.499Z,98129.72
2018-06-29T15:47:22.057Z,98127.45
2018-06-29T15:49:54.330Z,98128.17
2018-06-29T15:52:27.441Z,98129.84
2018-06-29T15:54:59.545Z,98132.41
2018-06-29T15:57:31.998Z,98137.76
2018-06-29T16:00:05.107Z,98147.44
2018-06-29T16:02:37.616Z,98148.77
2018-06-29T16:05:10.704Z,98151.44
2018-06-29T16:07:43.113Z,98160.70
2018-06-29T16:10:16.463Z,98164.20
2018-06-29T16:12:49.413Z,98173.23
2018-06-29T16:15:22.178Z,98180.43
2018-06-29T16:17:54.643Z,98179.73
2018-06-29T16:20:26.830Z,98183.42
2018-06-29T16:22:59.940Z,98180.75
2018-06-29T16:25:32.628Z,98184.05
2018-06-29T16:28:05.219Z,98179.53
2018-06-29T16:30:37.807Z,98182.02
2018-06-29T16:33:09.748Z,98183.03
2018-06-29T16:35:42.606Z,98183.73
2018-06-29T16:38:16.097Z,98183.95
2018-06-29T16:40:48.786Z,98180.17
2018-06-29T16:43:21.379Z,98180.99
2018-06-29T16:45:54.160Z,98179.66
2018-06-29T16:48:26.752Z,98175.64
2018-06-29T16:50:59.263Z,98174.31
2018-06-29T16:53:31.917Z,98179.66
2018-06-29T16:56:04.372Z,98187.05
2018-06-29T16:58:37.691Z,98182.20
2018-06-29T17:01:10.848Z,98183.03
2018-06-29T17:03:43.674Z,98185.08
2018-06-29T17:06:17.533Z,98185.39
2018-06-29T17:08:50.271Z,98182.02
2018-06-29T17:11:23.244Z,98184.05
2018-06-29T17:13:56.565Z,98181.38
2018-06-29T17:16:29.886Z,98182.72
2018-06-29T17:19:02.912Z,98181.38
2018-06-29T17:21:36.054Z,98183.03
2018-06-29T17:24:09.427Z,98173.67
2018-06-29T17:26:42.593Z,98170.17
2018-06-29T17:29:15.719Z,98181.06
2018-06-29T17:31:47.976Z,98190.23
2018-06-29T17:34:21.012Z,98184.98
2018-06-29T17:36:53.840Z,98190.42
2018-06-29T17:39:26.082Z,98203.09
2018-06-29T17:41:58.526Z,98203.47
2018-06-29T17:44:31.318Z,98203.89
2018-06-29T17:47:04.492Z,98200.84
2018-06-29T17:49:37.638Z,98203.95
2018-06-29T17:52:09.904Z,98205.93
2018-06-29T17:54:43.080Z,98215.50
2018-06-29T17:57:15.647Z,98214.59
2018-06-29T17:59:48.703Z,98215.92
2018-06-29T18:02:21.833Z,98213.27
2018-06-29T18:04:54.729Z,98217.16
2018-06-29T18:07:28.490Z,98208.22
2018-06-29T18:10:01.227Z,98209.45
2018-06-29T18:12:33.635Z,98203.79
2018-06-29T18:15:06.259Z,98204.30
2018-06-29T18:17:38.953Z,98202.45
2018-06-29T18:20:11.591Z,98200.29
2018-06-29T18:22:43.786Z,98211.30
2018-06-29T18:25:16.490Z,98207.17
2018-06-29T18:27:49.434Z,98207.80
2018-06-29T18:30:22.567Z,98208.73
2018-06-29T18:32:55.565Z,98207.50
2018-06-29T18:35:28.222Z,98201.77
2018-06-29T18:38:00.957Z,98208.70
2018-06-29T18:40:33.260Z,98204.59
2018-06-29T18:43:05.833Z,98207.27
2018-06-29T18:45:38.798Z,98205.93
2018-06-29T18:48:11.943Z,98199.88
2018-06-29T18:50:45.034Z,98198.55
2018-06-29T18:53:18.053Z,98193.56
2018-06-29T18:55:50.694Z,98196.57
2018-06-29T18:58:22.696Z,98202.05
2018-06-29T19:00:55.585Z,98199.05
2018-06-29T19:03:27.963Z,98201.60
2018-06-29T19:06:00.664Z,98207.91
2018-06-29T19:08:33.965Z,98202.36
2018-06-29T19:11:07.153Z,98202.55
2018-06-29T19:13:39.625Z,98199.95
2018-06-29T19:16:12.542Z,98196.57
2018-06-29T19:18:45.031Z,98196.06
2018-06-29T19:21:17.527Z,98198.73
2018-06-29T19:23:50.223Z,98199.56
2018-06-29T19:26:23.329Z,98203.06
2018-06-29T19:28:55.763Z,98200.20
2018-06-29T19:31:28.083Z,98195.88
2018-06-29T19:33:59.935Z,98190.06
2018-06-29T19:36:33.126Z,98191.01
2018-06-29T19:39:06.443Z,98184.23
2018-06-29T19:41:39.374Z,98183.20
2018-06-29T19:44:12.785Z,98187.22
2018-06-29T19:46:45.722Z,98185.66
2018-06-29T19:49:18.331Z,98177.64
2018-06-29T19:51:51.193Z,98175.89
2018-06-29T19:54:24.409Z,98175.89
2018-06-29T19:56:57.188Z,98177.55
2018-06-29T19:59:30.122Z,98180.53
2018-06-29T20:02:02.341Z,98176.52
2018-06-29T20:04:34.909Z,98182.70
2018-06-29T20:07:07.251Z,98174.55
2018-06-29T20:09:40.182Z,98184.55
2018-06-29T20:12:13.225Z,98176.20
2018-06-29T20:14:45.963Z,98175.57
2018-06-29T20:17:18.786Z,98174.23
2018-06-29T20:19:51.403Z,98169.52
2018-06-29T20:22:24.162Z,98169.84
2018-06-29T20:24:56.755Z,98167.16
2018-06-29T20:27:29.249Z,98165.70
2018-06-29T20:30:02.016Z,98161.82
2018-06-29T20:32:34.027Z,98166.34
2018-06-29T20:35:07.245Z,98168.19
2018-06-29T20:37:40.016Z,98166.22
2018-06-29T20:40:13.112Z,98166.22
2018-06-29T20:42:45.986Z,98165.42
2018-06-29T20:45:18.557Z,98157.17
2018-06-29T20:47:50.907Z,98148.84
2018-06-29T20:50:23.459Z,98145.88
2018-06-29T20:52:55.815Z,98147.22
2018-06-29T20:55:28.391Z,98144.32
2018-06-29T20:58:01.494Z,98142.79
2018-06-29T21:00:34.088Z,98140.03
2018-06-29T21:03:06.570Z,98143.81
2018-06-29T21:05:40.313Z,98143.81
2018-06-29T21:08:13.145Z,98142.98
2018-06-29T21:10:46.466Z,98149.38
2018-06-29T21:13:19.118Z,98151.74
2018-06-29T21:15:51.911Z,98152.25
2018-06-29T21:18:24.807Z,98150.59
2018-06-29T21:22:00.496Z,98151.74
2018-06-29T21:24:32.949Z,98154.41
2018-06-29T21:27:05.661Z,98149.58
2018-06-29T21:29:38.779Z,98149.58
2018-06-29T21:32:11.020Z,98145.88
2018-06-29T21:34:43.738Z,98149.58
2018-06-29T21:37:16.088Z,98147.73
2018-06-29T21:39:49.075Z,98149.89
2018-06-29T21:42:21.638Z,98146.91
2018-06-29T21:44:54.790Z,98154.29
2018-06-29T21:47:27.884Z,98152.64
2018-06-29T21:50:00.814Z,98155.31
2018-06-29T21:52:34.161Z,98155.31
2018-06-29T21:55:06.917Z,98158.30
2018-06-29T21:57:41.100Z,98157.16
2018-06-29T22:00:14.874Z,98147.61
2018-06-29T22:02:48.078Z,98144.81
2018-06-29T22:05:21.624Z,98149.96
2018-06-29T22:07:54.388Z,98155.31
2018-06-29T22:10:28.507Z,98154.99
2018-06-29T22:13:00.986Z,98157.67
2018-06-29T22:15:34.048Z,98161.67
2018-06-29T22:18:07.524Z,98163.84
2018-06-29T22:20:40.482Z,98168.77
2018-06-29T22:23:13.480Z,98157.84
2018-06-29T22:25:46.538Z,98161.77
2018-06-29T22:28:19.068Z,98167.83
2018-06-29T22:30:51.934Z,98173.48
2018-06-29T22:33:23.868Z,98177.11
2018-06-29T22:35:56.511Z,98177.30
2018-06-29T22:38:28.910Z,98176.06
2018-06-29T22:41:02.249Z,98179.15
2018-06-29T22:43:34.410Z,98185.20
2018-06-29T22:46:06.732Z,98181.19
2018-06-29T22:48:39.656Z,98182.02
2018-06-29T22:51:11.885Z,98180.87
2018-06-29T22:53:44.088Z,98185.90
2018-06-29T22:56:16.904Z,98186.63
2018-06-29T22:58:49.026Z,98180.27
2018-06-29T23:01:21.687Z,98177.05
2018-06-29T23:03:54.956Z,98175.94
2018-06-29T23:06:28.116Z,98175.52
2018-06-29T23:09:00.463Z,98174.61
2018-06-29T23:11:33.351Z,98175.43
2018-06-29T23:14:05.712Z,98179.44
2018-06-29T23:16:37.940Z,98185.07
2018-06-29T23:19:10.717Z,98183.23
2018-06-29T23:21:42.969Z,98184.28
2018-06-29T23:24:15.812Z,98183.83
2018-06-29T23:26:48.159Z,98184.98
2018-06-29T23:29:21.262Z,98180.66
2018-06-29T23:31:54.344Z,98176.13
2018-06-29T23:34:26.696Z,98183.64
2018-06-29T23:36:59.551Z,98184.85
2018-06-29T23:39:32.102Z,98184.22
2018-06-29T23:42:05.213Z,98184.02
2018-06-29T23:44:38.159Z,98182.69
2018-06-29T23:47:11.663Z,98187.11
2018-06-29T23:49:44.932Z,98189.78
2018-06-29T23:52:18.367Z,98197.80
2018-06-29T23:54:51.624Z,98200.16
2018-06-29T23:57:24.436Z,98191.44
2018-06-29T23:59:57.049Z,98197.99
